Time;durP1;ratioP1;P1;durP2;ratioP2;P2;SDS_P1;SDS_P2;PMS_P1;PMS_P2;Temp;Humidity;BMP_temperature;BMP_pressure;BME280_temperature;BME280_humidity;BME280_pressure;Samples;Min_cycle;Max_cycle;Signal;HPM_P1;HPM_P2
2023/07/25 00:01:49;;;;;;;1.63;1.27;;;18.20;99.90;;;;;;4183360;28;20428;-60
2023/07/25 00:03:50;;;;;;;5.88;1.63;;;18.20;99.90;;;;;;4185074;28;20048;-60
2023/07/25 00:05:50;;;;;;;4.50;1.48;;;18.20;99.90;;;;;;4182474;28;20044;-61
2023/07/25 00:07:51;;;;;;;1.83;1.10;;;18.20;99.90;;;;;;4177545;28;20068;-60
2023/07/25 00:09:52;;;;;;;2.42;1.30;;;18.20;99.90;;;;;;4185708;28;20394;-60
2023/07/25 00:11:52;;;;;;;4.30;1.70;;;18.10;99.90;;;;;;4183956;28;20131;-60
2023/07/25 00:13:53;;;;;;;3.33;1.23;;;18.20;99.90;;;;;;4188472;28;20166;-60
2023/07/25 00:15:53;;;;;;;3.42;1.23;;;18.10;99.90;;;;;;4180086;28;20048;-60
2023/07/25 00:17:54;;;;;;;1.95;1.17;;;18.10;99.90;;;;;;4182229;28;20098;-60
2023/07/25 00:19:54;;;;;;;2.92;1.10;;;18.10;99.90;;;;;;4181734;28;20037;-60
2023/07/25 00:21:55;;;;;;;6.32;0.90;;;18.10;99.90;;;;;;4182734;28;20485;-60
2023/07/25 00:23:55;;;;;;;1.90;1.27;;;18.00;99.90;;;;;;4183247;28;20035;-60
2023/07/25 00:25:57;;;;;;;5.03;1.55;;;18.00;99.90;;;;;;4181027;28;20028;-60
2023/07/25 00:27:58;;;;;;;3.60;1.40;;;18.10;99.90;;;;;;4182179;28;20395;-60
2023/07/25 00:29:58;;;;;;;2.22;1.15;;;18.00;99.90;;;;;;4182566;28;20116;-60
2023/07/25 00:31:59;;;;;;;3.88;1.42;;;18.00;99.90;;;;;;4179772;28;20021;-60
2023/07/25 00:33:59;;;;;;;2.65;1.38;;;18.00;99.90;;;;;;4182937;28;20032;-60
2023/07/25 00:36:00;;;;;;;3.83;1.30;;;18.00;99.90;;;;;;4181401;28;20040;-60
2023/07/25 00:38:03;;;;;;;2.38;0.93;;;18.00;99.90;;;;;;4175329;28;20104;-60
2023/07/25 00:40:04;;;;;;;4.80;1.30;;;18.00;99.90;;;;;;4180828;28;20040;-61
2023/07/25 00:42:05;;;;;;;2.65;1.00;;;18.00;99.90;;;;;;4182249;28;20046;-61
2023/07/25 00:44:06;;;;;;;2.85;1.15;;;18.00;99.90;;;;;;4183589;28;20556;-60
2023/07/25 00:46:06;;;;;;;2.67;1.30;;;18.00;99.90;;;;;;4179472;28;20032;-60
2023/07/25 00:48:07;;;;;;;2.40;1.02;;;18.00;99.90;;;;;;4180942;28;20083;-60
2023/07/25 00:50:09;;;;;;;2.47;1.13;;;18.00;99.90;;;;;;4181555;28;20504;-60
2023/07/25 00:52:09;;;;;;;2.20;1.00;;;18.00;99.90;;;;;;4183594;28;21102;-60
2023/07/25 00:54:10;;;;;;;1.95;0.98;;;18.00;99.90;;;;;;4181248;28;20110;-60
2023/07/25 00:56:12;;;;;;;2.55;1.50;;;18.00;99.90;;;;;;4179333;28;20040;-60
2023/07/25 00:58:13;;;;;;;3.15;0.90;;;18.00;99.90;;;;;;4181491;28;20399;-60
2023/07/25 01:00:13;;;;;;;1.13;0.90;;;18.00;99.90;;;;;;4180063;28;20064;-60
2023/07/25 01:02:14;;;;;;;1.23;0.93;;;18.10;99.90;;;;;;4180740;28;20080;-60
2023/07/25 01:04:15;;;;;;;1.75;1.10;;;18.10;99.90;;;;;;4181565;28;20492;-60
2023/07/25 01:06:17;;;;;;;2.97;1.23;;;18.10;99.90;;;;;;4177596;28;20128;-60
2023/07/25 01:08:17;;;;;;;2.23;0.93;;;18.10;99.90;;;;;;4156916;28;20044;-61
2023/07/25 01:10:18;;;;;;;3.72;1.48;;;18.10;99.90;;;;;;4166687;28;20272;-60
2023/07/25 01:12:18;;;;;;;1.52;1.05;;;18.10;99.90;;;;;;4168883;28;20029;-60
2023/07/25 01:14:19;;;;;;;2.33;1.05;;;18.10;99.90;;;;;;4167758;28;20183;-60
2023/07/25 01:16:23;;;;;;;1.92;0.95;;;18.10;99.90;;;;;;4164252;28;20037;-60
2023/07/25 01:18:24;;;;;;;1.80;1.10;;;18.00;99.90;;;;;;4165302;28;24211;-60
2023/07/25 01:20:25;;;;;;;2.55;1.02;;;18.10;99.90;;;;;;4168475;28;20046;-60
2023/07/25 01:22:27;;;;;;;3.85;0.93;;;18.00;99.90;;;;;;4166382;28;20136;-60
2023/07/25 01:24:27;;;;;;;1.75;0.98;;;18.10;99.90;;;;;;4164781;28;20030;-60
2023/07/25 01:26:28;;;;;;;2.05;1.02;;;18.00;99.90;;;;;;4159344;28;20057;-60
2023/07/25 01:28:29;;;;;;;1.67;1.02;;;18.00;99.90;;;;;;4170322;28;20040;-60
2023/07/25 01:30:30;;;;;;;1.65;0.90;;;18.00;99.90;;;;;;4169031;28;20481;-60
2023/07/25 01:32:31;;;;;;;2.38;1.20;;;18.00;99.90;;;;;;4170389;28;20029;-60
2023/07/25 01:34:32;;;;;;;1.80;1.00;;;18.00;99.90;;;;;;4168300;28;20033;-60
2023/07/25 01:36:33;;;;;;;4.95;1.23;;;18.00;99.90;;;;;;4163185;28;20025;-60
2023/07/25 01:38:33;;;;;;;2.45;1.08;;;18.00;99.90;;;;;;4163087;28;20021;-60
2023/07/25 01:40:34;;;;;;;2.33;1.20;;;18.00;99.90;;;;;;4162033;28;20075;-60
2023/07/25 01:42:35;;;;;;;1.77;1.20;;;18.00;99.90;;;;;;4164019;28;20480;-63
2023/07/25 01:44:35;;;;;;;2.25;1.20;;;18.00;99.90;;;;;;4172953;28;20519;-61
2023/07/25 01:46:37;;;;;;;3.70;1.17;;;17.90;99.90;;;;;;4173034;28;20099;-60
2023/07/25 01:48:37;;;;;;;1.05;0.90;;;17.90;99.90;;;;;;4181519;28;20028;-60
2023/07/25 01:50:38;;;;;;;1.80;1.20;;;17.90;99.90;;;;;;4181164;28;20040;-60
2023/07/25 01:52:38;;;;;;;4.28;1.40;;;17.90;99.90;;;;;;4179821;28;20048;-60
2023/07/25 01:54:39;;;;;;;2.38;1.08;;;17.90;99.90;;;;;;4186211;28;20021;-60
2023/07/25 01:56:40;;;;;;;3.80;1.38;;;17.80;99.90;;;;;;4177984;28;20506;-60
2023/07/25 01:58:40;;;;;;;2.53;1.40;;;17.90;99.90;;;;;;4182866;28;20063;-60
2023/07/25 02:00:41;;;;;;;2.15;1.10;;;17.80;99.90;;;;;;4181518;28;20660;-60
2023/07/25 02:02:41;;;;;;;2.47;1.35;;;17.80;99.90;;;;;;4181057;28;20051;-60
2023/07/25 02:04:42;;;;;;;4.57;1.10;;;17.80;99.90;;;;;;4183745;28;20043;-60
2023/07/25 02:06:42;;;;;;;3.05;1.50;;;17.90;99.90;;;;;;4159221;28;20073;-60
2023/07/25 02:08:43;;;;;;;6.95;1.50;;;17.80;99.90;;;;;;4182145;28;20035;-60
2023/07/25 02:10:44;;;;;;;1.55;1.33;;;17.80;99.90;;;;;;4180605;28;20033;-60
2023/07/25 02:12:44;;;;;;;4.43;1.55;;;17.80;99.90;;;;;;4180950;28;20400;-60
2023/07/25 02:14:45;;;;;;;5.60;1.30;;;17.80;99.90;;;;;;4184037;28;20093;-60
2023/07/25 02:16:45;;;;;;;1.80;1.20;;;17.80;99.90;;;;;;4175262;28;20025;-60
2023/07/25 02:18:46;;;;;;;5.70;1.55;;;17.80;99.90;;;;;;4184315;28;20047;-60
2023/07/25 02:20:46;;;;;;;1.73;1.33;;;17.80;99.90;;;;;;4180990;28;20484;-60
2023/07/25 02:22:47;;;;;;;3.60;1.60;;;17.80;99.90;;;;;;4180630;28;20078;-60
2023/07/25 02:24:48;;;;;;;3.08;1.30;;;17.80;99.90;;;;;;4180494;28;20021;-60
2023/07/25 02:26:48;;;;;;;5.57;1.58;;;17.70;99.90;;;;;;4165046;28;20384;-63
2023/07/25 02:28:49;;;;;;;2.25;1.45;;;17.70;99.90;;;;;;4185818;28;20366;-61
2023/07/25 02:30:49;;;;;;;3.75;1.88;;;17.70;99.90;;;;;;4184789;28;20041;-61
2023/07/25 02:32:50;;;;;;;2.25;1.50;;;17.70;99.90;;;;;;4179460;28;20033;-60
2023/07/25 02:34:50;;;;;;;4.05;1.63;;;17.60;99.90;;;;;;4178983;28;20037;-60
2023/07/25 02:36:51;;;;;;;4.43;1.60;;;17.60;99.90;;;;;;4175059;28;20032;-61
2023/07/25 02:38:52;;;;;;;4.30;1.52;;;17.60;99.90;;;;;;4182637;28;20056;-60
2023/07/25 02:40:52;;;;;;;4.38;1.70;;;17.60;99.90;;;;;;4183882;28;20037;-61
2023/07/25 02:42:53;;;;;;;2.30;1.65;;;17.60;99.90;;;;;;4185060;28;20480;-61
2023/07/25 02:44:53;;;;;;;3.60;1.63;;;17.50;99.90;;;;;;4178569;28;20073;-60
2023/07/25 02:46:54;;;;;;;2.25;1.50;;;17.50;99.90;;;;;;4175138;28;20502;-60
2023/07/25 02:48:54;;;;;;;1.70;1.23;;;17.50;99.90;;;;;;4183744;28;20052;-60
2023/07/25 02:50:55;;;;;;;3.20;1.50;;;17.50;99.90;;;;;;4163709;28;20148;-61
2023/07/25 02:52:56;;;;;;;1.85;1.27;;;17.40;99.90;;;;;;4178495;28;20042;-60
2023/07/25 02:54:56;;;;;;;2.63;1.60;;;17.50;99.90;;;;;;4164651;28;20497;-60
2023/07/25 02:56:57;;;;;;;3.15;1.70;;;17.40;99.90;;;;;;4159997;28;20037;-60
2023/07/25 02:58:57;;;;;;;3.75;1.65;;;17.40;99.90;;;;;;4168661;28;20086;-60
2023/07/25 03:00:59;;;;;;;2.47;1.55;;;17.40;99.90;;;;;;4169077;28;20397;-60
2023/07/25 03:03:00;;;;;;;4.03;1.67;;;17.40;99.90;;;;;;4162775;28;20374;-60
2023/07/25 03:05:00;;;;;;;2.40;1.45;;;17.40;99.90;;;;;;4157927;28;20172;-60
2023/07/25 03:07:01;;;;;;;3.13;1.58;;;17.40;99.90;;;;;;4152931;28;20022;-60
2023/07/25 03:09:03;;;;;;;2.15;1.27;;;17.50;99.90;;;;;;4154187;28;20021;-60
2023/07/25 03:11:03;;;;;;;2.95;1.45;;;17.40;99.90;;;;;;4149303;28;20474;-60
2023/07/25 03:13:04;;;;;;;3.20;1.73;;;17.40;99.90;;;;;;4150845;28;20160;-60
2023/07/25 03:15:05;;;;;;;3.03;1.40;;;17.40;99.90;;;;;;4149483;28;20042;-60
2023/07/25 03:17:05;;;;;;;2.53;1.70;;;17.40;99.90;;;;;;4148680;28;20393;-60
2023/07/25 03:19:06;;;;;;;1.67;1.30;;;17.40;99.90;;;;;;4179260;28;20041;-62
2023/07/25 03:21:07;;;;;;;3.60;1.55;;;17.40;99.90;;;;;;4181044;28;20064;-60
2023/07/25 03:23:07;;;;;;;4.03;1.73;;;17.40;99.90;;;;;;4186360;28;20500;-61
2023/07/25 03:25:08;;;;;;;2.13;1.55;;;17.40;99.90;;;;;;4178466;28;20041;-61
2023/07/25 03:27:09;;;;;;;2.30;1.50;;;17.40;99.90;;;;;;4178521;28;20040;-60
2023/07/25 03:29:10;;;;;;;5.65;1.90;;;17.40;99.90;;;;;;4181014;28;20128;-60
2023/07/25 03:31:10;;;;;;;1.83;1.50;;;17.40;99.90;;;;;;4166407;28;20095;-60
2023/07/25 03:33:11;;;;;;;10.90;1.77;;;17.40;99.90;;;;;;4165443;28;20046;-60
2023/07/25 03:35:12;;;;;;;2.20;1.60;;;17.40;99.90;;;;;;4159747;28;20037;-60
2023/07/25 03:37:12;;;;;;;4.00;1.98;;;17.30;99.90;;;;;;4161562;28;20040;-60
2023/07/25 03:39:13;;;;;;;3.35;1.58;;;17.30;99.90;;;;;;4164055;28;20072;-60
2023/07/25 03:41:13;;;;;;;3.78;1.70;;;17.30;99.90;;;;;;4165416;28;20041;-60
2023/07/25 03:43:14;;;;;;;2.40;1.42;;;17.30;99.90;;;;;;4166538;28;20481;-60
2023/07/25 03:45:14;;;;;;;2.88;1.80;;;17.30;99.90;;;;;;4175756;28;20079;-60
2023/07/25 03:47:15;;;;;;;3.35;1.83;;;17.30;99.90;;;;;;4182090;28;20037;-60
2023/07/25 03:49:15;;;;;;;3.75;2.00;;;17.30;99.90;;;;;;4190265;28;20054;-60
2023/07/25 03:51:16;;;;;;;5.68;2.13;;;17.30;99.90;;;;;;4183349;28;20025;-60
2023/07/25 03:53:16;;;;;;;3.33;1.88;;;17.30;99.90;;;;;;4183830;28;20059;-60
2023/07/25 03:55:17;;;;;;;2.03;1.40;;;17.20;99.90;;;;;;4181998;28;20049;-60
2023/07/25 03:57:18;;;;;;;1.83;1.50;;;17.20;99.90;;;;;;4185913;28;20098;-60
2023/07/25 03:59:18;;;;;;;4.10;1.95;;;17.20;99.90;;;;;;4184894;28;20037;-60
2023/07/25 04:01:19;;;;;;;3.08;1.70;;;17.20;99.90;;;;;;4184295;28;20040;-60
2023/07/25 04:03:19;;;;;;;4.03;1.70;;;17.20;99.90;;;;;;4182461;28;20105;-60
2023/07/25 04:05:21;;;;;;;3.67;1.70;;;17.10;99.90;;;;;;4182835;28;20052;-60
2023/07/25 04:07:21;;;;;;;3.40;1.45;;;17.10;99.90;;;;;;4177112;28;20071;-60
2023/07/25 04:09:22;;;;;;;2.50;1.50;;;17.10;99.90;;;;;;4180302;28;20036;-60
2023/07/25 04:11:22;;;;;;;2.75;1.55;;;17.10;99.90;;;;;;4170688;28;20037;-60
2023/07/25 04:13:23;;;;;;;2.88;1.65;;;17.10;99.90;;;;;;4173465;28;20029;-60
2023/07/25 04:15:24;;;;;;;2.50;1.52;;;17.10;99.90;;;;;;4164387;28;20038;-60
2023/07/25 04:17:24;;;;;;;5.45;1.70;;;17.10;99.90;;;;;;4168109;28;20076;-60
2023/07/25 04:19:25;;;;;;;3.63;1.60;;;17.00;99.90;;;;;;4172449;28;20049;-60
2023/07/25 04:21:25;;;;;;;2.42;1.45;;;17.00;99.90;;;;;;4171709;28;20515;-60
2023/07/25 04:23:26;;;;;;;3.65;1.60;;;17.00;99.90;;;;;;4157643;28;20104;-60
2023/07/25 04:25:26;;;;;;;3.20;1.77;;;17.00;99.90;;;;;;4179589;28;20144;-60
2023/07/25 04:27:30;;;;;;;3.22;1.65;;;17.00;99.90;;;;;;4180831;28;20036;-60
2023/07/25 04:29:31;;;;;;;4.05;1.60;;;17.00;99.90;;;;;;4184959;28;20029;-60
2023/07/25 04:31:31;;;;;;;1.70;1.27;;;17.00;99.90;;;;;;4182244;28;20042;-60
2023/07/25 04:33:32;;;;;;;1.65;1.42;;;17.00;99.90;;;;;;4184580;28;20041;-60
2023/07/25 04:35:33;;;;;;;4.28;1.90;;;17.00;99.90;;;;;;4181548;28;20025;-60
2023/07/25 04:37:33;;;;;;;6.47;1.65;;;17.00;99.90;;;;;;4179399;28;20029;-60
2023/07/25 04:39:34;;;;;;;4.60;1.80;;;17.00;99.90;;;;;;4183585;28;20512;-60
2023/07/25 04:41:35;;;;;;;2.47;1.50;;;17.00;99.90;;;;;;4184140;28;20040;-60
2023/07/25 04:43:35;;;;;;;6.60;2.00;;;17.00;99.90;;;;;;4180291;28;20112;-60
2023/07/25 04:45:37;;;;;;;5.03;2.10;;;17.00;99.90;;;;;;4180632;28;20053;-60
2023/07/25 04:47:37;;;;;;;8.32;2.10;;;17.00;99.90;;;;;;4182424;28;20040;-64
2023/07/25 04:49:38;;;;;;;4.65;2.08;;;17.00;99.90;;;;;;4182709;28;20453;-61
2023/07/25 04:51:40;;;;;;;2.30;1.58;;;17.00;99.90;;;;;;4182485;28;20059;-61
2023/07/25 04:53:40;;;;;;;4.82;2.13;;;17.00;99.90;;;;;;4180593;28;20491;-60
2023/07/25 04:55:41;;;;;;;4.65;2.08;;;17.00;99.90;;;;;;4179218;28;20049;-60
2023/07/25 04:57:41;;;;;;;3.42;2.20;;;17.00;99.90;;;;;;4181646;28;20123;-60
2023/07/25 04:59:42;;;;;;;2.80;1.80;;;17.00;99.90;;;;;;4185833;28;20032;-60
2023/07/25 05:01:42;;;;;;;3.15;2.00;;;17.00;99.90;;;;;;4183974;28;20106;-60
2023/07/25 05:03:43;;;;;;;8.18;2.15;;;17.00;99.90;;;;;;4166124;28;20048;-60
2023/07/25 05:05:43;;;;;;;4.38;2.28;;;17.00;99.90;;;;;;4178205;28;20043;-60
2023/07/25 05:07:44;;;;;;;4.50;2.15;;;17.00;99.90;;;;;;4181465;28;20037;-60
2023/07/25 05:09:44;;;;;;;5.22;2.38;;;17.10;99.90;;;;;;4180826;28;20036;-60
2023/07/25 05:11:50;;;;;;;4.95;2.10;;;17.10;99.90;;;;;;4185407;28;20033;-60
2023/07/25 05:13:51;;;;;;;4.38;1.98;;;17.10;99.90;;;;;;4184423;28;20389;-60
2023/07/25 05:15:52;;;;;;;5.47;2.25;;;17.10;99.90;;;;;;4179370;28;20028;-60
2023/07/25 05:17:52;;;;;;;4.40;2.50;;;17.10;99.90;;;;;;4185941;28;20056;-60
2023/07/25 05:19:53;;;;;;;4.28;2.17;;;17.20;99.90;;;;;;4186372;28;20045;-62
2023/07/25 05:21:53;;;;;;;4.72;2.25;;;17.20;99.90;;;;;;4168923;28;20037;-61
2023/07/25 05:23:55;;;;;;;2.78;2.00;;;17.20;99.90;;;;;;4169091;28;20029;-60
2023/07/25 05:25:55;;;;;;;2.75;2.15;;;17.20;99.90;;;;;;4179002;28;20033;-60
2023/07/25 05:27:56;;;;;;;6.55;2.20;;;17.20;99.90;;;;;;4185398;28;20387;-60
2023/07/25 05:29:57;;;;;;;2.83;1.90;;;17.20;99.90;;;;;;4183444;28;20045;-60
2023/07/25 05:31:57;;;;;;;3.35;1.92;;;17.30;99.90;;;;;;4184916;28;20035;-60
2023/07/25 05:33:58;;;;;;;2.80;1.85;;;17.30;99.90;;;;;;4189494;28;20419;-60
2023/07/25 05:36:00;;;;;;;2.38;1.80;;;17.30;99.90;;;;;;4175644;28;20095;-61
2023/07/25 05:38:01;;;;;;;4.32;1.73;;;17.30;99.90;;;;;;4176354;28;20214;-60
2023/07/25 05:40:02;;;;;;;4.95;1.92;;;17.40;99.90;;;;;;4177477;28;20395;-60
2023/07/25 05:42:03;;;;;;;4.68;2.17;;;17.40;99.90;;;;;;4157679;28;20124;-60
2023/07/25 05:44:03;;;;;;;4.03;1.95;;;17.40;99.90;;;;;;4169049;28;20037;-61
2023/07/25 05:46:04;;;;;;;8.73;2.40;;;17.50;99.90;;;;;;4175038;28;20036;-60
2023/07/25 05:48:05;;;;;;;3.50;1.92;;;17.50;99.90;;;;;;4182719;28;20102;-60
2023/07/25 05:50:06;;;;;;;3.35;1.77;;;17.50;99.90;;;;;;4181912;28;20457;-60
2023/07/25 05:52:07;;;;;;;6.03;1.75;;;17.50;99.90;;;;;;4184817;28;20086;-62
2023/07/25 05:54:08;;;;;;;7.30;2.38;;;17.50;99.90;;;;;;4185311;28;20535;-62
2023/07/25 05:56:08;;;;;;;3.83;1.85;;;17.50;99.90;;;;;;4167210;28;20041;-62
2023/07/25 05:58:09;;;;;;;2.83;1.88;;;17.50;99.90;;;;;;4164484;28;20041;-62
2023/07/25 06:00:10;;;;;;;4.65;2.13;;;17.50;99.90;;;;;;4162868;28;20038;-63
2023/07/25 06:02:11;;;;;;;6.85;2.45;;;17.50;99.90;;;;;;4167262;28;20033;-62
2023/07/25 06:04:13;;;;;;;5.55;2.30;;;17.50;99.90;;;;;;4159634;28;20112;-62
2023/07/25 06:06:14;;;;;;;2.38;1.80;;;17.50;99.90;;;;;;4156024;28;20460;-63
2023/07/25 06:08:14;;;;;;;4.53;1.65;;;17.50;99.90;;;;;;4161346;28;20041;-62
2023/07/25 06:10:15;;;;;;;4.18;1.85;;;17.50;99.90;;;;;;4162425;28;20041;-62
2023/07/25 06:12:16;;;;;;;3.22;1.88;;;17.60;99.90;;;;;;4166228;28;20068;-62
2023/07/25 06:14:16;;;;;;;2.85;1.70;;;17.70;99.90;;;;;;4163863;28;20064;-62
2023/07/25 06:16:17;;;;;;;3.97;2.20;;;17.80;99.90;;;;;;4157821;28;20030;-62
2023/07/25 06:18:17;;;;;;;4.10;1.92;;;18.00;99.90;;;;;;4160072;28;20064;-62
2023/07/25 06:20:18;;;;;;;4.70;2.00;;;18.20;99.90;;;;;;4159979;28;20036;-62
2023/07/25 06:22:19;;;;;;;4.65;2.08;;;18.30;99.90;;;;;;4158419;28;20060;-62
2023/07/25 06:24:19;;;;;;;4.05;1.63;;;18.50;99.90;;;;;;4173650;28;20122;-62
2023/07/25 06:26:20;;;;;;;4.72;1.98;;;18.70;99.90;;;;;;4149484;28;20042;-62
2023/07/25 06:28:21;;;;;;;5.25;1.58;;;19.00;99.90;;;;;;4156829;28;20048;-62
2023/07/25 06:30:21;;;;;;;3.20;1.30;;;19.30;99.90;;;;;;4155287;28;20034;-62
2023/07/25 06:32:22;;;;;;;4.05;1.63;;;19.60;99.90;;;;;;4159815;28;20099;-62
2023/07/25 06:34:23;;;;;;;3.30;1.45;;;19.90;99.90;;;;;;4159202;28;20034;-62
2023/07/25 06:36:23;;;;;;;3.33;1.40;;;20.10;99.90;;;;;;4154164;28;20037;-62
2023/07/25 06:38:24;;;;;;;1.77;0.93;;;20.40;99.90;;;;;;4160297;28;20103;-62
2023/07/25 06:40:25;;;;;;;1.85;1.10;;;20.70;99.90;;;;;;4156093;28;20037;-62
2023/07/25 06:42:28;;;;;;;2.60;1.17;;;21.00;99.90;;;;;;4146222;28;20040;-62
2023/07/25 06:44:28;;;;;;;4.50;1.35;;;21.30;99.90;;;;;;4155990;28;20034;-63
2023/07/25 06:46:29;;;;;;;3.97;1.10;;;21.50;99.90;;;;;;4153302;28;20164;-63
2023/07/25 06:48:29;;;;;;;3.38;1.25;;;21.70;99.90;;;;;;4160346;28;20496;-63
2023/07/25 06:50:32;;;;;;;6.30;1.67;;;21.80;99.90;;;;;;4160154;28;20458;-63
2023/07/25 06:52:33;;;;;;;;;;;21.80;99.90;;;;;;4155552;28;20037;-63
2023/07/25 06:54:33;;;;;;;3.47;1.33;;;21.90;99.90;;;;;;4156691;28;19924;-62
2023/07/25 06:56:34;;;;;;;3.90;1.30;;;21.90;99.90;;;;;;4155634;28;20046;-63
2023/07/25 06:58:34;;;;;;;4.68;1.48;;;21.80;99.90;;;;;;4161157;28;20029;-63
2023/07/25 07:00:38;;;;;;;3.33;1.30;;;21.80;99.90;;;;;;4159377;28;20041;-63
2023/07/25 07:02:38;;;;;;;2.25;1.00;;;21.70;99.90;;;;;;4149695;28;20064;-62
2023/07/25 07:04:39;;;;;;;3.70;1.20;;;21.70;99.90;;;;;;4160185;28;20036;-62
2023/07/25 07:06:39;;;;;;;3.30;1.30;;;21.70;99.90;;;;;;4156569;28;20542;-63
2023/07/25 07:08:40;;;;;;;2.85;0.93;;;21.60;99.90;;;;;;4160875;28;20366;-63
2023/07/25 07:10:40;;;;;;;4.88;1.60;;;21.60;99.90;;;;;;4160086;28;20034;-63
2023/07/25 07:12:46;;;;;;;2.90;1.08;;;21.50;99.90;;;;;;4161158;28;20573;-63
2023/07/25 07:14:47;;;;;;;3.65;1.52;;;21.50;99.90;;;;;;4170846;28;20242;-63
2023/07/25 07:16:47;;;;;;;3.95;1.35;;;21.50;99.90;;;;;;4155959;28;20485;-62
2023/07/25 07:18:50;;;;;;;2.58;1.00;;;21.40;99.90;;;;;;4160525;28;20025;-63
2023/07/25 07:20:51;;;;;;;4.78;1.20;;;21.30;99.90;;;;;;4160584;28;20052;-63
2023/07/25 07:22:52;;;;;;;2.15;1.05;;;21.20;99.90;;;;;;4159863;28;20440;-63
2023/07/25 07:24:55;;;;;;;1.95;1.10;;;21.20;99.90;;;;;;4158706;28;20124;-63
2023/07/25 07:26:55;;;;;;;2.80;1.10;;;21.10;99.90;;;;;;4155688;28;20192;-63
2023/07/25 07:28:56;;;;;;;2.72;0.88;;;21.10;99.90;;;;;;4160827;28;20504;-63
2023/07/25 07:30:57;;;;;;;4.70;1.38;;;21.00;99.90;;;;;;4151566;28;20121;-63
2023/07/25 07:32:57;;;;;;;4.72;1.48;;;21.00;99.90;;;;;;4146114;28;20030;-65
2023/07/25 07:34:58;;;;;;;3.75;1.02;;;20.90;99.90;;;;;;4159148;28;20436;-63
2023/07/25 07:36:58;;;;;;;2.58;0.95;;;20.80;99.90;;;;;;4158009;28;20035;-64
2023/07/25 07:38:59;;;;;;;2.17;0.93;;;20.80;99.90;;;;;;4160131;28;20037;-63
2023/07/25 07:40:59;;;;;;;2.70;1.02;;;20.70;99.90;;;;;;4149982;28;20033;-63
2023/07/25 07:43:00;;;;;;;3.30;1.08;;;20.70;99.90;;;;;;4160482;28;20095;-63
2023/07/25 07:45:01;;;;;;;2.67;1.08;;;20.70;99.90;;;;;;4160542;28;20049;-63
2023/07/25 07:47:01;;;;;;;2.50;0.80;;;20.70;99.90;;;;;;4172409;28;20025;-63
2023/07/25 07:49:02;;;;;;;2.95;0.90;;;20.70;99.90;;;;;;4176464;28;20041;-63
2023/07/25 07:51:03;;;;;;;2.88;1.20;;;20.60;99.90;;;;;;4176464;28;20029;-63
2023/07/25 07:53:04;;;;;;;2.83;1.25;;;20.60;99.90;;;;;;4177060;28;20484;-63
2023/07/25 07:55:05;;;;;;;5.55;1.23;;;20.60;99.90;;;;;;4174133;28;20132;-64
2023/07/25 07:57:06;;;;;;;5.00;1.20;;;20.50;99.90;;;;;;4167204;28;20388;-63
2023/07/25 07:59:07;;;;;;;3.15;1.10;;;20.60;99.90;;;;;;4177016;28;20040;-63
2023/07/25 08:01:19;;;;;;;2.25;0.90;;;20.60;99.90;;;;;;4169510;28;20037;-63
2023/07/25 08:03:20;;;;;;;2.92;1.20;;;20.60;99.90;;;;;;4170626;28;20429;-63
2023/07/25 08:05:21;;;;;;;5.10;1.50;;;20.60;99.90;;;;;;4171816;28;20082;-63
2023/07/25 08:07:21;;;;;;;2.55;1.10;;;20.60;99.90;;;;;;4175960;28;20033;-63
2023/07/25 08:09:22;;;;;;;5.30;1.23;;;20.60;99.90;;;;;;4179648;28;20546;-63
2023/07/25 08:11:22;;;;;;;2.15;1.10;;;20.60;99.90;;;;;;4176682;28;20438;-63
2023/07/25 08:13:23;;;;;;;3.80;1.10;;;20.60;99.90;;;;;;4179968;28;20033;-63
2023/07/25 08:15:23;;;;;;;2.40;1.00;;;20.70;99.90;;;;;;4175589;28;20036;-63
2023/07/25 08:17:24;;;;;;;3.83;1.17;;;20.60;99.90;;;;;;4178075;28;20033;-63
2023/07/25 08:19:24;;;;;;;2.20;1.02;;;20.70;99.90;;;;;;4164412;28;20692;-63
2023/07/25 08:21:25;;;;;;;4.75;1.65;;;20.70;99.90;;;;;;4178597;28;20037;-63
2023/07/25 08:23:26;;;;;;;4.05;1.38;;;20.80;99.90;;;;;;4179896;28;20053;-63
2023/07/25 08:25:27;;;;;;;6.63;1.52;;;20.80;99.90;;;;;;4176692;28;20044;-63
2023/07/25 08:27:27;;;;;;;3.25;1.23;;;20.80;99.90;;;;;;4169122;28;20033;-63
2023/07/25 08:29:28;;;;;;;7.55;1.50;;;20.90;99.90;;;;;;4158824;28;20037;-65
2023/07/25 08:31:29;;;;;;;3.75;1.20;;;20.80;99.90;;;;;;4169674;28;20028;-63
2023/07/25 08:33:32;;;;;;;3.92;1.33;;;20.80;99.90;;;;;;4160175;28;20125;-63
2023/07/25 08:35:32;;;;;;;3.05;1.17;;;20.80;99.90;;;;;;4169465;28;20783;-63
2023/07/25 08:37:33;;;;;;;3.72;1.38;;;20.80;99.90;;;;;;4176263;28;20217;-63
2023/07/25 08:39:34;;;;;;;4.35;1.30;;;20.70;99.90;;;;;;4171945;28;20467;-63
2023/07/25 08:41:50;;;;;;;3.42;1.20;;;20.70;99.90;;;;;;4173344;28;20438;-63
2023/07/25 08:43:53;;;;;;;2.38;1.05;;;20.70;99.90;;;;;;4159749;28;20475;-63
2023/07/25 08:45:56;;;;;;;3.40;1.23;;;20.70;99.90;;;;;;4155321;28;20065;-63
2023/07/25 08:48:03;;;;;;;6.22;1.67;;;20.60;99.90;;;;;;4157224;28;20034;-62
2023/07/25 08:50:16;;;;;;;2.15;1.05;;;20.50;99.90;;;;;;4147908;28;20068;-64
2023/07/25 08:52:18;;;;;;;6.70;1.35;;;20.40;99.90;;;;;;4160409;28;20033;-64
2023/07/25 08:54:25;;;;;;;5.05;1.42;;;20.20;99.90;;;;;;4159317;28;20035;-63
2023/07/25 08:56:26;;;;;;;4.72;1.55;;;20.10;99.90;;;;;;4155158;28;21016;-63
2023/07/25 08:58:27;;;;;;;6.57;1.40;;;20.10;99.90;;;;;;4161166;28;20033;-63
2023/07/25 09:00:29;;;;;;;5.28;1.00;;;20.10;99.90;;;;;;4175164;28;20144;-64
2023/07/25 09:02:30;;;;;;;5.03;1.55;;;20.10;99.90;;;;;;4162105;28;20083;-64
2023/07/25 09:04:31;;;;;;;8.80;2.05;;;20.10;99.90;;;;;;4172740;28;20049;-63
2023/07/25 09:06:31;;;;;;;4.22;1.33;;;20.20;99.90;;;;;;4172022;28;20042;-63
2023/07/25 09:08:32;;;;;;;3.63;1.45;;;20.20;99.90;;;;;;4184134;28;20029;-63
2023/07/25 09:10:33;;;;;;;4.18;1.30;;;20.30;99.90;;;;;;4177162;28;20438;-63
2023/07/25 09:12:33;;;;;;;2.45;1.10;;;20.40;99.90;;;;;;4181434;28;20115;-62
2023/07/25 09:14:38;;;;;;;3.22;1.20;;;20.40;99.90;;;;;;4182309;28;20040;-63
2023/07/25 09:16:39;;;;;;;4.32;1.40;;;20.50;99.90;;;;;;4177470;28;20044;-63
2023/07/25 09:18:40;;;;;;;6.50;1.52;;;20.50;99.90;;;;;;4182104;28;20403;-63
2023/07/25 09:20:41;;;;;;;6.90;1.60;;;20.50;99.90;;;;;;4162311;28;20036;-63
2023/07/25 09:22:47;;;;;;;4.00;1.38;;;20.60;99.90;;;;;;4181356;28;20119;-63
2023/07/25 09:24:48;;;;;;;5.07;1.50;;;20.60;99.90;;;;;;4155798;28;20070;-63
2023/07/25 09:26:50;;;;;;;4.32;1.50;;;20.60;99.90;;;;;;4175275;28;20040;-63
2023/07/25 09:28:53;;;;;;;5.38;1.55;;;20.60;99.90;;;;;;4181040;28;20363;-63
2023/07/25 09:30:54;;;;;;;;;;;20.60;99.90;;;;;;4180461;28;20025;-64
2023/07/25 09:32:55;;;;;;;4.32;1.17;;;20.60;99.90;;;;;;4180387;28;19916;-63
2023/07/25 09:35:06;;;;;;;4.13;1.30;;;20.60;99.90;;;;;;4176306;28;20120;-63
2023/07/25 09:37:06;;;;;;;2.05;1.08;;;20.50;99.90;;;;;;4174512;28;20219;-63
2023/07/25 09:39:08;;;;;;;3.15;1.02;;;20.50;99.90;;;;;;4177692;28;20036;-63
2023/07/25 09:41:09;;;;;;;8.48;2.20;;;20.50;99.90;;;;;;4143858;28;20043;-63
2023/07/25 09:43:27;;;;;;;4.53;1.40;;;20.30;99.90;;;;;;4161479;28;20041;-63
2023/07/25 09:45:36;;;;;;;3.85;1.35;;;20.20;99.90;;;;;;4168539;28;20045;-63
2023/07/25 09:47:38;;;;;;;4.15;1.77;;;20.10;99.90;;;;;;4175622;28;20091;-63
2023/07/25 09:49:46;;;;;;;4.80;1.40;;;20.00;99.90;;;;;;4176766;28;20127;-63
2023/07/25 09:52:03;;;;;;;2.63;1.25;;;20.00;99.90;;;;;;4176274;28;20533;-64
2023/07/25 09:54:05;;;;;;;4.13;1.30;;;20.00;99.90;;;;;;4175417;28;20029;-64
2023/07/25 09:56:07;;;;;;;6.85;1.58;;;19.90;99.90;;;;;;4171116;28;20037;-63
2023/07/25 09:58:08;;;;;;;4.30;1.40;;;19.90;99.90;;;;;;4175180;28;20373;-63
2023/07/25 10:00:09;;;;;;;3.05;1.58;;;19.80;99.90;;;;;;4174955;28;20556;-63
2023/07/25 10:02:10;;;;;;;4.40;1.42;;;19.80;99.90;;;;;;4166536;28;20125;-63
2023/07/25 10:04:11;;;;;;;4.03;1.50;;;19.70;99.90;;;;;;4177868;28;20408;-64
2023/07/25 10:06:16;;;;;;;3.33;1.23;;;19.70;99.90;;;;;;4175028;28;20029;-63
2023/07/25 10:08:17;;;;;;;3.83;1.20;;;19.60;99.90;;;;;;4159341;28;20570;-63
2023/07/25 10:10:18;;;;;;;4.93;1.55;;;19.70;99.90;;;;;;4169535;28;20026;-65
2023/07/25 10:12:19;;;;;;;3.42;1.23;;;19.70;99.90;;;;;;4161912;28;20029;-64
2023/07/25 10:14:20;;;;;;;5.13;1.73;;;19.70;99.90;;;;;;4161582;28;20029;-64
2023/07/25 10:16:21;;;;;;;9.35;1.88;;;19.70;99.90;;;;;;4167747;28;20473;-63
2023/07/25 10:18:27;;;;;;;3.67;1.55;;;19.70;99.90;;;;;;4168806;28;20041;-64
2023/07/25 10:20:28;;;;;;;7.63;1.60;;;19.70;99.90;;;;;;4174730;28;20764;-63
2023/07/25 10:22:44;;;;;;;7.53;1.70;;;19.70;99.90;;;;;;4178279;28;20029;-63
2023/07/25 10:24:44;;;;;;;4.10;1.27;;;19.70;99.90;;;;;;4176268;28;20028;-63
2023/07/25 10:26:53;;;;;;;3.50;1.50;;;19.80;99.90;;;;;;4164269;28;20493;-64
2023/07/25 10:28:53;;;;;;;6.32;1.88;;;19.80;99.90;;;;;;4177058;28;20029;-63
2023/07/25 10:30:54;;;;;;;3.60;1.45;;;19.80;99.90;;;;;;4174622;28;20041;-64
2023/07/25 10:32:59;;;;;;;7.13;1.83;;;19.80;99.90;;;;;;4174607;28;20029;-64